createdAt,value
2017-09-15T00:00:19.528Z,3.50
2017-09-15T00:02:21.262Z,3.83
2017-09-15T00:04:22.221Z,3.40
2017-09-15T00:06:23.918Z,3.80
2017-09-15T00:08:24.876Z,3.87
2017-09-15T00:10:25.905Z,4.27
2017-09-15T00:12:26.856Z,3.00
2017-09-15T00:14:27.821Z,3.80
2017-09-15T00:16:29.521Z,4.20
2017-09-15T00:18:30.487Z,4.10
2017-09-15T00:20:31.475Z,4.53
2017-09-15T00:22:32.426Z,4.40
2017-09-15T00:24:33.380Z,4.33
2017-09-15T00:26:34.335Z,4.07
2017-09-15T00:28:35.303Z,4.37
2017-09-15T00:30:36.253Z,5.03
2017-09-15T00:32:37.257Z,4.63
2017-09-15T00:34:38.952Z,5.23
2017-09-15T00:36:39.904Z,4.90
2017-09-15T00:38:40.876Z,4.23
2017-09-15T00:40:42.580Z,4.50
2017-09-15T00:42:43.533Z,5.10
2017-09-15T00:44:44.493Z,5.50
2017-09-15T00:46:45.453Z,5.07
2017-09-15T00:48:46.436Z,5.40
2017-09-15T00:50:48.163Z,5.13
2017-09-15T00:52:49.113Z,3.77
2017-09-15T00:54:50.068Z,4.13
2017-09-15T00:56:51.040Z,3.73
2017-09-15T00:58:52.743Z,5.27
2017-09-15T01:00:53.697Z,3.70
2017-09-15T01:02:54.644Z,3.63
2017-09-15T01:04:55.601Z,3.37
2017-09-15T01:06:57.313Z,4.37
2017-09-15T01:08:58.290Z,3.80
2017-09-15T01:11:00.892Z,4.00
2017-09-15T01:13:01.864Z,3.93
2017-09-15T01:15:02.829Z,5.57
2017-09-15T01:17:04.524Z,4.10
2017-09-15T01:19:05.477Z,4.00
2017-09-15T01:21:06.437Z,3.50
2017-09-15T01:23:07.389Z,4.27
2017-09-15T01:25:09.089Z,4.57
2017-09-15T01:27:10.049Z,4.40
2017-09-15T01:29:11.000Z,3.40
2017-09-15T01:31:11.941Z,4.33
2017-09-15T01:33:13.633Z,4.70
2017-09-15T01:35:14.624Z,4.07
2017-09-15T01:37:15.583Z,4.20
2017-09-15T01:39:16.542Z,3.20
2017-09-15T01:41:17.497Z,3.80
2017-09-15T01:43:18.461Z,4.57
2017-09-15T01:45:20.183Z,3.90
2017-09-15T01:47:21.149Z,3.40
2017-09-15T01:49:22.884Z,3.50
2017-09-15T01:51:23.832Z,3.70
2017-09-15T01:53:24.792Z,4.10
2017-09-15T01:55:26.512Z,4.40
2017-09-15T01:57:27.472Z,3.63
2017-09-15T01:59:28.432Z,4.10
2017-09-15T02:01:29.380Z,3.60
2017-09-15T02:03:30.336Z,3.07
2017-09-15T02:05:31.289Z,3.77
2017-09-15T02:07:32.245Z,4.03
2017-09-15T02:09:33.200Z,3.67
2017-09-15T02:11:34.920Z,3.50
2017-09-15T02:13:35.863Z,3.47
2017-09-15T02:15:36.823Z,4.10
2017-09-15T02:17:38.545Z,3.67
2017-09-15T02:19:39.517Z,4.33
2017-09-15T02:21:40.491Z,4.20
2017-09-15T02:23:41.454Z,4.33
2017-09-15T02:25:42.406Z,4.20
2017-09-15T02:27:43.358Z,4.53
2017-09-15T02:29:44.329Z,4.00
2017-09-15T02:31:45.294Z,4.20
2017-09-15T02:33:46.258Z,3.83
2017-09-15T02:35:47.957Z,3.83
2017-09-15T02:37:48.932Z,4.00
2017-09-15T02:39:49.876Z,4.03
2017-09-15T02:41:51.598Z,4.50
2017-09-15T02:43:52.549Z,5.20
2017-09-15T02:45:53.518Z,5.27
2017-09-15T02:47:54.481Z,4.30
2017-09-15T02:49:55.425Z,5.10
2017-09-15T02:51:56.384Z,4.70
2017-09-15T02:53:57.343Z,4.50
2017-09-15T02:55:59.045Z,5.20
2017-09-15T02:58:00.018Z,5.00
2017-09-15T03:00:00.972Z,5.47
2017-09-15T03:02:02.677Z,5.20
2017-09-15T03:04:03.631Z,5.30
2017-09-15T03:06:04.589Z,5.37
2017-09-15T03:08:06.290Z,5.17
2017-09-15T03:10:07.241Z,5.70
2017-09-15T03:12:08.189Z,5.60
2017-09-15T03:14:09.140Z,5.10
2017-09-15T03:16:10.093Z,6.03
2017-09-15T03:18:11.808Z,5.27
2017-09-15T03:20:12.774Z,5.10
2017-09-15T03:22:14.502Z,4.97
2017-09-15T03:24:15.456Z,4.70
2017-09-15T03:26:16.399Z,4.50
2017-09-15T03:28:18.109Z,5.03
2017-09-15T03:30:19.085Z,5.20
2017-09-15T03:32:20.797Z,5.30
2017-09-15T03:34:21.764Z,4.97
2017-09-15T03:36:22.727Z,4.53
2017-09-15T03:38:24.427Z,5.70
2017-09-15T03:40:25.373Z,5.00
2017-09-15T03:42:26.333Z,5.17
2017-09-15T03:44:27.276Z,5.33
2017-09-15T03:46:28.989Z,5.23
2017-09-15T03:48:29.953Z,6.07
2017-09-15T03:50:30.905Z,5.47
2017-09-15T03:52:32.609Z,5.80
2017-09-15T03:54:33.557Z,5.53
2017-09-15T03:56:34.520Z,6.03
2017-09-15T03:58:36.221Z,5.20
2017-09-15T04:00:37.189Z,6.20
2017-09-15T04:02:38.925Z,5.70
2017-09-15T04:04:39.890Z,5.77
2017-09-15T04:06:41.592Z,5.93
2017-09-15T04:08:42.564Z,6.50
2017-09-15T04:10:43.542Z,6.53
2017-09-15T04:12:44.510Z,5.97
2017-09-15T04:14:45.473Z,5.60
2017-09-15T04:16:46.445Z,6.70
2017-09-15T04:18:48.162Z,5.93
2017-09-15T04:20:49.124Z,7.53
2017-09-15T04:22:50.809Z,5.27
2017-09-15T04:24:51.781Z,6.33
2017-09-15T04:26:52.740Z,5.20
2017-09-15T04:28:53.701Z,5.40
2017-09-15T04:30:54.664Z,5.37
2017-09-15T04:32:55.613Z,6.23
2017-09-15T04:34:56.564Z,6.50
2017-09-15T04:36:57.512Z,6.57
2017-09-15T04:38:58.538Z,6.57
2017-09-15T04:40:59.514Z,6.27
2017-09-15T04:43:00.482Z,6.97
2017-09-15T04:45:01.445Z,7.00
2017-09-15T04:47:02.468Z,6.73
2017-09-15T04:49:03.429Z,6.90
2017-09-15T04:51:04.381Z,7.50
2017-09-15T04:53:06.072Z,6.97
2017-09-15T04:55:07.047Z,7.50
2017-09-15T04:57:08.000Z,7.10
2017-09-15T04:59:09.706Z,7.50
2017-09-15T05:01:10.676Z,7.27
2017-09-15T05:03:11.635Z,7.17
2017-09-15T05:05:12.603Z,8.70
2017-09-15T05:07:13.557Z,7.43
2017-09-15T05:09:14.509Z,8.87
2017-09-15T05:11:15.486Z,7.60
2017-09-15T05:13:16.456Z,8.60
2017-09-15T05:15:17.417Z,7.80
2017-09-15T05:17:18.382Z,7.60
2017-09-15T05:19:19.336Z,7.80
2017-09-15T05:21:20.297Z,7.53
2017-09-15T05:23:21.255Z,6.87
2017-09-15T05:25:22.217Z,8.00
2017-09-15T05:27:23.992Z,7.30
2017-09-15T05:29:24.957Z,8.13
2017-09-15T05:31:25.926Z,8.60
2017-09-15T05:33:26.887Z,8.23
2017-09-15T05:35:28.602Z,8.20
2017-09-15T05:37:29.561Z,6.93
2017-09-15T05:39:30.521Z,7.30
2017-09-15T05:41:31.512Z,6.80
2017-09-15T05:43:32.461Z,7.00
2017-09-15T05:45:33.428Z,7.10
2017-09-15T05:47:34.384Z,6.37
2017-09-15T05:49:35.346Z,6.40
2017-09-15T05:51:36.317Z,6.63
2017-09-15T05:53:38.017Z,6.20
2017-09-15T05:55:38.976Z,6.80
2017-09-15T05:57:39.946Z,6.03
2017-09-15T05:59:41.644Z,7.53
2017-09-15T06:01:42.609Z,6.37
2017-09-15T06:03:43.559Z,7.23
2017-09-15T06:05:45.269Z,6.50
2017-09-15T06:07:46.241Z,6.60
2017-09-15T06:09:47.192Z,6.83
2017-09-15T06:11:48.900Z,5.90
2017-09-15T06:13:49.872Z,7.10
2017-09-15T06:15:50.825Z,6.27
2017-09-15T06:17:52.530Z,6.50
2017-09-15T06:19:53.492Z,6.90
2017-09-15T06:21:54.461Z,6.70
2017-09-15T06:23:55.408Z,6.40
2017-09-15T06:25:56.367Z,6.60
2017-09-15T06:27:57.346Z,6.90
2017-09-15T06:29:59.041Z,7.70
2017-09-15T06:32:00.009Z,7.23
2017-09-15T06:34:00.982Z,8.07
2017-09-15T06:36:02.679Z,8.70
2017-09-15T06:38:03.644Z,7.90
2017-09-15T06:40:04.606Z,8.90
2017-09-15T06:42:06.317Z,10.27
2017-09-15T06:44:07.282Z,10.13
2017-09-15T06:46:08.984Z,10.50
2017-09-15T06:48:09.944Z,10.93
2017-09-15T06:50:10.894Z,11.80
2017-09-15T06:52:11.850Z,11.67
2017-09-15T06:54:13.540Z,11.43
2017-09-15T06:56:14.516Z,10.80
2017-09-15T06:58:15.472Z,11.40
2017-09-15T07:00:17.188Z,11.33
2017-09-15T07:02:18.147Z,12.17
2017-09-15T07:04:19.088Z,11.90
2017-09-15T07:06:20.029Z,11.37
2017-09-15T07:08:21.735Z,11.37
2017-09-15T07:10:22.680Z,12.33
2017-09-15T07:12:23.642Z,11.50
2017-09-15T07:14:24.597Z,13.93
2017-09-15T07:16:26.293Z,13.30
2017-09-15T07:18:27.249Z,13.47
2017-09-15T07:20:28.189Z,16.20
2017-09-15T07:22:29.145Z,13.87
2017-09-15T07:24:30.087Z,15.83
2017-09-15T07:26:31.773Z,13.13
2017-09-15T07:28:32.728Z,16.57
2017-09-15T07:30:33.732Z,16.20
2017-09-15T07:32:34.683Z,15.67
2017-09-15T07:34:35.625Z,15.20
2017-09-15T07:36:36.568Z,15.53
2017-09-15T07:38:37.520Z,17.37
2017-09-15T07:40:38.460Z,16.97
2017-09-15T07:42:39.405Z,16.97
2017-09-15T07:44:40.344Z,16.90
2017-09-15T07:46:41.298Z,18.80
2017-09-15T07:48:42.998Z,17.17
2017-09-15T07:50:43.944Z,17.87
2017-09-15T07:52:44.897Z,17.37
2017-09-15T07:54:45.845Z,15.80
2017-09-15T07:56:47.532Z,16.10
2017-09-15T07:58:48.482Z,15.63
2017-09-15T08:00:49.418Z,17.50
2017-09-15T08:02:50.377Z,17.43
2017-09-15T08:04:51.316Z,15.60
2017-09-15T08:06:52.265Z,15.37
2017-09-15T08:08:53.228Z,15.83
2017-09-15T08:10:54.913Z,16.43
2017-09-15T08:12:55.864Z,15.23
2017-09-15T08:14:56.802Z,15.90
2017-09-15T08:16:57.752Z,15.20
2017-09-15T08:18:58.726Z,15.60
2017-09-15T08:21:00.413Z,15.07
2017-09-15T08:23:01.364Z,16.17
2017-09-15T08:25:03.062Z,17.30
2017-09-15T08:27:04.745Z,17.00
2017-09-15T08:29:05.712Z,16.43
2017-09-15T08:31:06.654Z,15.33
2017-09-15T08:33:07.588Z,14.63
2017-09-15T08:35:08.533Z,14.63
2017-09-15T08:37:09.476Z,12.60
2017-09-15T08:39:11.172Z,12.30
2017-09-15T08:41:12.112Z,12.70
2017-09-15T08:43:13.052Z,13.83
2017-09-15T08:45:13.996Z,12.70
2017-09-15T08:47:14.941Z,12.33
2017-09-15T08:49:15.898Z,13.83
2017-09-15T08:51:17.596Z,15.47
2017-09-15T08:53:18.561Z,12.60
2017-09-15T08:55:19.508Z,12.60
2017-09-15T08:57:20.454Z,10.53
2017-09-15T08:59:21.412Z,12.47
2017-09-15T09:01:23.109Z,12.18
2017-09-15T09:03:24.064Z,11.50
2017-09-15T09:05:25.012Z,9.53
2017-09-15T09:07:25.968Z,11.23
2017-09-15T09:09:27.666Z,12.20
2017-09-15T09:11:28.609Z,9.13
2017-09-15T09:13:29.564Z,10.13
2017-09-15T09:15:30.516Z,9.40
2017-09-15T09:17:31.482Z,10.80
2017-09-15T09:19:33.176Z,8.87
2017-09-15T09:21:34.128Z,10.40
2017-09-15T09:23:35.087Z,8.30
2017-09-15T09:25:36.798Z,9.10
2017-09-15T09:27:37.742Z,9.70
2017-09-15T09:29:38.706Z,10.55
2017-09-15T09:31:40.404Z,10.63
2017-09-15T09:33:41.356Z,10.20
2017-09-15T09:35:42.325Z,10.93
2017-09-15T09:37:43.278Z,10.03
2017-09-15T09:39:44.236Z,9.37
2017-09-15T09:41:45.189Z,9.87
2017-09-15T09:43:46.145Z,8.00
2017-09-15T09:45:47.108Z,7.80
2017-09-15T09:47:48.796Z,7.90
2017-09-15T09:49:50.214Z,8.73
2017-09-15T09:51:51.909Z,8.87
2017-09-15T09:53:52.866Z,7.33
2017-09-15T09:55:54.582Z,7.13
2017-09-15T09:57:55.536Z,7.17
2017-09-15T09:59:56.508Z,7.37
2017-09-15T10:01:57.470Z,6.90
2017-09-15T10:03:59.165Z,7.43
2017-09-15T10:06:00.124Z,7.30
2017-09-15T10:08:01.084Z,7.40
2017-09-15T10:10:02.782Z,7.73
2017-09-15T10:12:03.741Z,9.35
2017-09-15T10:14:04.696Z,8.23
2017-09-15T10:16:05.653Z,7.33
2017-09-15T10:18:07.350Z,7.47
2017-09-15T10:20:08.303Z,8.37
2017-09-15T10:22:09.273Z,8.23
2017-09-15T10:24:10.973Z,6.70
2017-09-15T10:26:11.963Z,7.10
2017-09-15T10:28:13.656Z,6.63
2017-09-15T10:30:14.609Z,7.47
2017-09-15T10:32:15.573Z,7.20
2017-09-15T10:34:16.520Z,7.50
2017-09-15T10:36:18.209Z,7.50
2017-09-15T10:38:19.168Z,7.93
2017-09-15T10:40:20.133Z,7.33
2017-09-15T10:42:21.092Z,6.93
2017-09-15T10:44:22.044Z,6.07
2017-09-15T10:46:23.000Z,6.27
2017-09-15T10:48:23.957Z,6.00
2017-09-15T10:50:24.912Z,6.37
2017-09-15T10:52:25.872Z,6.87
2017-09-15T10:54:27.557Z,6.67
2017-09-15T10:56:28.509Z,6.10
2017-09-15T10:58:35.456Z,7.50
2017-09-15T11:00:36.405Z,6.00
2017-09-15T11:02:37.365Z,7.60
2017-09-15T11:04:38.324Z,6.80
2017-09-15T11:06:40.024Z,6.47
2017-09-15T11:08:40.986Z,6.23
2017-09-15T11:10:41.924Z,6.70
2017-09-15T11:12:42.871Z,6.80
2017-09-15T11:14:43.821Z,6.90
2017-09-15T11:16:45.508Z,7.40
2017-09-15T11:18:46.469Z,7.57
2017-09-15T11:20:47.416Z,7.70
2017-09-15T11:22:48.385Z,7.30
2017-09-15T11:24:50.072Z,7.40
2017-09-15T11:26:51.017Z,5.87
2017-09-15T11:28:51.996Z,7.33
2017-09-15T11:30:52.968Z,7.17
2017-09-15T11:32:53.928Z,6.70
2017-09-15T11:34:54.871Z,7.20
2017-09-15T11:36:55.821Z,6.80
2017-09-15T11:38:56.788Z,6.70
2017-09-15T11:40:57.758Z,6.40
2017-09-15T11:42:58.704Z,5.93
2017-09-15T11:44:59.670Z,6.00
2017-09-15T11:47:00.626Z,6.60
2017-09-15T11:49:02.320Z,6.03
2017-09-15T11:51:10.272Z,6.03
2017-09-15T11:53:11.289Z,7.03
2017-09-15T11:55:12.232Z,7.40
2017-09-15T11:57:13.181Z,8.93
2017-09-15T11:59:14.876Z,7.77
2017-09-15T12:01:15.828Z,6.20
2017-09-15T12:03:16.778Z,7.67
2017-09-15T12:05:17.743Z,6.40
2017-09-15T12:07:19.450Z,6.17
2017-09-15T12:09:20.412Z,6.73
2017-09-15T12:11:21.377Z,7.43
2017-09-15T12:13:23.069Z,6.60
2017-09-15T12:15:24.021Z,5.67
2017-09-15T12:17:24.993Z,7.10
2017-09-15T12:19:26.689Z,7.10
2017-09-15T12:21:27.642Z,7.20
2017-09-15T12:23:28.604Z,7.10
2017-09-15T12:25:29.557Z,7.27
2017-09-15T12:27:31.245Z,6.80
2017-09-15T12:29:32.215Z,6.77
2017-09-15T12:31:33.176Z,7.10
2017-09-15T12:33:34.125Z,6.73
2017-09-15T12:35:35.826Z,6.63
2017-09-15T12:37:36.773Z,6.97
2017-09-15T12:39:37.727Z,6.90
2017-09-15T12:41:38.697Z,5.83
2017-09-15T12:43:39.657Z,5.93
2017-09-15T12:45:40.617Z,7.10
2017-09-15T12:47:41.569Z,5.77
2017-09-15T12:49:42.516Z,7.00
2017-09-15T12:51:44.209Z,7.17
2017-09-15T12:53:45.161Z,6.87
2017-09-15T12:55:46.116Z,5.70
2017-09-15T12:57:47.065Z,6.40
2017-09-15T12:59:48.012Z,6.20
2017-09-15T13:01:49.701Z,6.37
2017-09-15T13:03:50.652Z,5.40
2017-09-15T13:05:51.618Z,5.70
2017-09-15T13:07:52.564Z,4.77
2017-09-15T13:09:53.504Z,4.20
2017-09-15T13:11:55.192Z,4.67
2017-09-15T13:13:56.137Z,3.80
2017-09-15T13:15:57.169Z,4.70
2017-09-15T13:17:58.127Z,4.70
2017-09-15T13:19:59.087Z,4.40
2017-09-15T13:22:00.032Z,3.90
2017-09-15T13:24:00.971Z,3.80
2017-09-15T13:26:01.946Z,3.77
2017-09-15T13:28:02.893Z,3.70
2017-09-15T13:30:03.853Z,4.23
2017-09-15T13:32:04.805Z,3.50
2017-09-15T13:34:05.762Z,3.90
2017-09-15T13:36:07.452Z,3.73
2017-09-15T13:38:08.406Z,3.90
2017-09-15T13:40:09.365Z,4.00
2017-09-15T13:42:10.322Z,4.17
2017-09-15T13:44:12.013Z,4.63
2017-09-15T13:46:13.039Z,4.03
2017-09-15T13:48:14.033Z,4.37
2017-09-15T13:50:14.993Z,3.70
2017-09-15T13:52:15.977Z,3.73
2017-09-15T13:54:16.933Z,4.20
2017-09-15T13:56:17.912Z,3.27
2017-09-15T13:58:18.864Z,4.03
2017-09-15T14:00:19.836Z,4.00
2017-09-15T14:02:20.792Z,3.97
2017-09-15T14:04:22.480Z,3.63
2017-09-15T14:06:23.442Z,3.70
2017-09-15T14:08:24.426Z,3.70
2017-09-15T14:10:26.115Z,3.90
2017-09-15T14:12:27.088Z,3.30
2017-09-15T14:14:28.032Z,3.90
2017-09-15T14:16:29.005Z,3.97
2017-09-15T14:18:29.975Z,3.70
2017-09-15T14:20:30.917Z,4.10
2017-09-15T14:22:31.869Z,3.87
2017-09-15T14:24:32.804Z,4.10
2017-09-15T14:26:33.752Z,4.03
2017-09-15T14:28:35.448Z,4.43
2017-09-15T14:30:36.392Z,4.17
2017-09-15T14:32:37.381Z,3.83
2017-09-15T14:34:39.077Z,4.20
2017-09-15T14:36:40.031Z,3.90
2017-09-15T14:38:41.011Z,4.00
2017-09-15T14:40:42.713Z,3.92
2017-09-15T14:42:43.656Z,4.10
2017-09-15T14:44:44.621Z,3.60
2017-09-15T14:46:45.576Z,3.33
2017-09-15T14:48:47.285Z,3.20
2017-09-15T14:50:48.248Z,3.17
2017-09-15T14:52:49.953Z,3.00
2017-09-15T14:54:50.905Z,2.83
2017-09-15T14:56:51.869Z,3.60
2017-09-15T14:58:52.832Z,3.30
2017-09-15T15:00:53.801Z,3.30
2017-09-15T15:02:55.502Z,3.07
2017-09-15T15:04:57.204Z,2.90
2017-09-15T15:06:58.148Z,2.60
2017-09-15T15:08:59.098Z,3.30
2017-09-15T15:11:00.057Z,2.93
2017-09-15T15:13:01.748Z,3.20
2017-09-15T15:15:02.764Z,3.00
2017-09-15T15:17:03.724Z,3.30
2017-09-15T15:19:04.684Z,3.30
2017-09-15T15:21:05.641Z,3.27
2017-09-15T15:23:06.585Z,3.70
2017-09-15T15:25:07.538Z,3.80
2017-09-15T15:27:09.229Z,3.30
2017-09-15T15:29:10.229Z,3.10
2017-09-15T15:31:11.916Z,3.30
2017-09-15T15:33:12.870Z,4.60
2017-09-15T15:35:13.826Z,3.40
2017-09-15T15:37:14.780Z,3.43
2017-09-15T15:39:23.529Z,4.00
2017-09-15T15:41:24.482Z,3.80
2017-09-15T15:43:25.433Z,3.87
2017-09-15T15:45:26.405Z,3.40
2017-09-15T15:47:28.109Z,3.20
2017-09-15T15:49:29.086Z,3.90
2017-09-15T15:51:30.044Z,3.30
2017-09-15T15:53:31.740Z,2.90
2017-09-15T15:55:32.705Z,3.50
2017-09-15T15:57:33.668Z,3.63
2017-09-15T15:59:35.377Z,2.77
2017-09-15T16:01:36.334Z,3.30
2017-09-15T16:03:37.321Z,3.87
2017-09-15T16:05:38.292Z,2.90
2017-09-15T16:07:39.256Z,3.67
2017-09-15T16:09:40.213Z,3.37
2017-09-15T16:11:41.168Z,2.90
2017-09-15T16:13:42.128Z,3.60
2017-09-15T16:15:43.089Z,3.33
2017-09-15T16:17:44.032Z,4.17
2017-09-15T16:19:44.975Z,4.10
2017-09-15T16:21:46.699Z,3.83
2017-09-15T16:23:47.650Z,3.93
2017-09-15T16:25:48.628Z,4.47
2017-09-15T16:27:49.594Z,4.50
2017-09-15T16:29:50.615Z,3.30
2017-09-15T16:31:51.600Z,4.30
2017-09-15T16:33:52.621Z,3.43
2017-09-15T16:35:53.591Z,3.37
2017-09-15T16:38:01.308Z,3.27
2017-09-15T16:40:08.345Z,3.70
2017-09-15T16:42:15.345Z,3.70
2017-09-15T16:44:23.138Z,3.00
2017-09-15T16:46:31.010Z,3.20
2017-09-15T16:48:45.101Z,3.27
2017-09-15T16:50:46.069Z,3.30
2017-09-15T16:52:47.029Z,3.27
2017-09-15T16:54:48.024Z,3.70
2017-09-15T16:56:48.968Z,3.30
2017-09-15T16:58:49.921Z,3.23
2017-09-15T17:00:50.864Z,3.57
2017-09-15T17:02:51.816Z,3.40
2017-09-15T17:04:52.765Z,3.43
2017-09-15T17:06:53.713Z,3.83
2017-09-15T17:09:01.671Z,3.10
2017-09-15T17:11:02.616Z,3.00
2017-09-15T17:13:03.620Z,3.00
2017-09-15T17:15:05.304Z,3.27
2017-09-15T17:17:06.248Z,3.20
2017-09-15T17:19:07.196Z,4.07
2017-09-15T17:21:08.136Z,3.23
2017-09-15T17:23:09.085Z,3.70
2017-09-15T17:25:10.021Z,3.27
2017-09-15T17:27:10.966Z,3.80
2017-09-15T17:29:11.919Z,3.00
2017-09-15T17:31:13.612Z,3.30
2017-09-15T17:33:14.558Z,3.30
2017-09-15T17:35:15.496Z,3.33
2017-09-15T17:37:16.443Z,3.87
2017-09-15T17:39:17.436Z,3.20
2017-09-15T17:41:18.381Z,2.83
2017-09-15T17:43:19.332Z,3.77
2017-09-15T17:45:20.267Z,3.60
2017-09-15T17:47:21.221Z,3.93
2017-09-15T17:49:22.173Z,3.67
2017-09-15T17:51:23.118Z,3.20
2017-09-15T17:53:24.809Z,4.03
2017-09-15T17:55:25.768Z,3.30
2017-09-15T17:57:26.708Z,4.53
2017-09-15T17:59:27.657Z,3.70
2017-09-15T18:01:28.605Z,3.80
2017-09-15T18:03:29.556Z,3.83
2017-09-15T18:05:31.255Z,4.80
2017-09-15T18:07:32.200Z,4.40
2017-09-15T18:09:33.165Z,4.17
2017-09-15T18:11:34.105Z,4.23
2017-09-15T18:13:35.058Z,5.00
2017-09-15T18:15:36.748Z,4.20
2017-09-15T18:17:37.693Z,4.23
2017-09-15T18:19:38.644Z,4.73
2017-09-15T18:21:39.592Z,4.40
2017-09-15T18:23:40.538Z,4.00
2017-09-15T18:25:41.488Z,4.90
2017-09-15T18:27:43.188Z,4.90
2017-09-15T18:29:44.144Z,4.67
2017-09-15T18:31:45.080Z,4.63
2017-09-15T18:33:46.025Z,4.40
2017-09-15T18:35:46.972Z,4.83
2017-09-15T18:37:55.693Z,4.90
2017-09-15T18:39:57.388Z,4.73
2017-09-15T18:41:58.357Z,5.33
2017-09-15T18:43:59.300Z,4.77
2017-09-15T18:46:00.259Z,4.40
2017-09-15T18:48:01.954Z,3.60
2017-09-15T18:50:02.911Z,4.03
2017-09-15T18:52:03.857Z,4.20
2017-09-15T18:54:04.796Z,4.27
2017-09-15T18:56:05.769Z,3.20
2017-09-15T18:58:06.725Z,3.40
2017-09-15T19:00:07.664Z,3.80
2017-09-15T19:02:08.620Z,3.70
2017-09-15T19:04:09.568Z,3.07
2017-09-15T19:06:10.530Z,3.60
2017-09-15T19:08:12.221Z,3.07
2017-09-15T19:10:13.173Z,3.80
2017-09-15T19:12:14.120Z,3.50
2017-09-15T19:14:15.068Z,2.80
2017-09-15T19:16:16.026Z,3.10
2017-09-15T19:18:17.714Z,3.43
2017-09-15T19:20:18.674Z,3.10
2017-09-15T19:22:20.368Z,3.50
2017-09-15T19:24:22.057Z,3.17
2017-09-15T19:26:23.005Z,3.20
2017-09-15T19:28:23.953Z,3.40
2017-09-15T19:30:24.958Z,3.10
2017-09-15T19:32:25.908Z,3.23
2017-09-15T19:34:26.885Z,3.23
2017-09-15T19:36:27.835Z,3.50
2017-09-15T19:38:29.516Z,3.23
2017-09-15T19:40:30.478Z,3.60
2017-09-15T19:42:31.437Z,3.30
2017-09-15T19:44:32.380Z,3.60
2017-09-15T19:46:33.345Z,3.40
2017-09-15T19:48:34.297Z,3.33
2017-09-15T19:50:35.254Z,3.50
2017-09-15T19:52:36.213Z,3.67
2017-09-15T19:54:37.164Z,3.53
2017-09-15T19:56:38.864Z,3.40
2017-09-15T19:58:39.817Z,4.17
2017-09-15T20:00:40.768Z,3.60
2017-09-15T20:02:41.730Z,3.20
2017-09-15T20:04:43.441Z,3.40
2017-09-15T20:06:44.396Z,3.97
2017-09-15T20:08:45.347Z,3.60
2017-09-15T20:10:47.045Z,3.70
2017-09-15T20:12:48.005Z,4.33
2017-09-15T20:14:48.961Z,4.23
2017-09-15T20:16:49.908Z,4.47
2017-09-15T20:18:51.601Z,4.33
2017-09-15T20:20:52.558Z,4.90
2017-09-15T20:22:53.522Z,4.97
2017-09-15T20:24:54.469Z,4.30
2017-09-15T20:26:56.173Z,4.13
2017-09-15T20:28:57.141Z,5.00
2017-09-15T20:30:58.100Z,5.10
2017-09-15T20:32:59.057Z,5.00
2017-09-15T20:35:00.013Z,5.00
2017-09-15T20:37:00.969Z,5.47
2017-09-15T20:39:01.959Z,5.43
2017-09-15T20:41:02.926Z,5.50
2017-09-15T20:43:03.880Z,5.03
2017-09-15T20:45:04.842Z,5.23
2017-09-15T20:47:06.543Z,5.00
2017-09-15T20:49:07.541Z,5.37
2017-09-15T20:51:09.228Z,4.97
2017-09-15T20:53:10.189Z,5.47
2017-09-15T20:55:11.140Z,5.40
2017-09-15T20:57:12.089Z,5.77
2017-09-15T20:59:13.796Z,6.10
2017-09-15T21:01:14.756Z,6.20
2017-09-15T21:03:15.709Z,6.90
2017-09-15T21:05:16.669Z,6.20
2017-09-15T21:07:17.616Z,6.95
2017-09-15T21:09:18.576Z,7.07
2017-09-15T21:11:19.528Z,6.87
2017-09-15T21:13:20.482Z,8.23
2017-09-15T21:15:21.441Z,8.73
2017-09-15T21:17:22.401Z,7.87
2017-09-15T21:19:23.366Z,7.23
2017-09-15T21:21:24.309Z,6.63
2017-09-15T21:23:25.268Z,7.17
2017-09-15T21:25:26.984Z,7.60
2017-09-15T21:27:27.943Z,7.23
2017-09-15T21:29:28.896Z,7.20
2017-09-15T21:31:30.592Z,7.55
2017-09-15T21:33:31.558Z,7.87
2017-09-15T21:35:32.514Z,7.80
2017-09-15T21:37:34.203Z,7.67
2017-09-15T21:39:35.161Z,8.90
2017-09-15T21:41:36.113Z,7.87
2017-09-15T21:43:37.060Z,8.43
2017-09-15T21:45:38.017Z,9.13
2017-09-15T21:47:39.713Z,9.80
2017-09-15T21:49:40.672Z,9.40
2017-09-15T21:51:41.621Z,10.23
2017-09-15T21:53:42.613Z,10.13
2017-09-15T21:55:43.592Z,11.20
2017-09-15T21:57:44.543Z,10.83
2017-09-15T21:59:46.240Z,12.43
2017-09-15T22:01:47.185Z,12.83
2017-09-15T22:03:54.208Z,12.50
2017-09-15T22:05:55.901Z,13.07
2017-09-15T22:07:56.922Z,13.50
2017-09-15T22:09:57.864Z,11.70
2017-09-15T22:11:58.816Z,12.63
2017-09-15T22:13:59.777Z,13.33
2017-09-15T22:16:00.734Z,13.60
2017-09-15T22:18:01.689Z,13.67
2017-09-15T22:20:03.381Z,13.50
2017-09-15T22:22:04.353Z,15.70
2017-09-15T22:24:05.309Z,13.90
2017-09-15T22:26:07.008Z,14.80
2017-09-15T22:28:07.977Z,15.70
2017-09-15T22:30:08.933Z,14.27
2017-09-15T22:32:10.637Z,14.60
2017-09-15T22:34:11.586Z,14.27
2017-09-15T22:36:12.576Z,14.90
2017-09-15T22:38:13.521Z,16.00
2017-09-15T22:40:14.466Z,14.67
2017-09-15T22:42:15.433Z,14.80
2017-09-15T22:44:16.386Z,11.07
2017-09-15T22:46:17.341Z,14.70
2017-09-15T22:48:19.033Z,15.30
2017-09-15T22:50:19.992Z,15.00
2017-09-15T22:52:20.944Z,14.57
2017-09-15T22:54:29.974Z,14.93
2017-09-15T22:56:31.668Z,15.33
2017-09-15T22:58:32.615Z,15.43
2017-09-15T23:00:33.564Z,14.63
2017-09-15T23:02:34.529Z,15.17
2017-09-15T23:04:35.485Z,15.07
2017-09-15T23:06:37.200Z,16.57
2017-09-15T23:08:38.161Z,17.92
2017-09-15T23:10:39.845Z,15.93
2017-09-15T23:12:40.800Z,16.33
2017-09-15T23:14:41.752Z,17.20
2017-09-15T23:16:42.709Z,17.03
2017-09-15T23:18:44.504Z,16.03
2017-09-15T23:20:45.444Z,17.00
2017-09-15T23:22:46.398Z,15.77
2017-09-15T23:24:47.366Z,14.90
2017-09-15T23:26:48.318Z,17.53
2017-09-15T23:28:49.293Z,16.40
2017-09-15T23:30:50.272Z,17.30
2017-09-15T23:32:51.231Z,18.23
2017-09-15T23:34:52.190Z,17.80
2017-09-15T23:36:53.141Z,17.23
2017-09-15T23:38:54.120Z,17.73
2017-09-15T23:40:55.065Z,17.83
2017-09-15T23:42:56.378Z,17.57
2017-09-15T23:44:57.338Z,16.73
2017-09-15T23:46:58.444Z,19.57
2017-09-15T23:48:59.411Z,16.47
2017-09-15T23:51:00.357Z,16.77
2017-09-15T23:53:02.053Z,16.10
2017-09-15T23:55:03.012Z,16.80
2017-09-15T23:57:03.981Z,18.90
2017-09-15T23:59:05.721Z,16.40
